ITY1353 LIML-LIPQ
Flight info
| Callsign | ITY1353 |
|---|---|
| Flight time | 0h 38m |
| Altitude | 26000 |
| Route | NESTI DCT NEVNI DCT NOBMI/N0396F250 DCT CHI |
| Aircraft | A21N/M-SDE2E3FGHIRWXY/LB1 |
Departure
| Time | 2026-04-29 14:56 |
|---|---|
| Airport | Milano Linate Airport (LIML) |
Arrival
| Time | 2026-04-29 15:35 |
|---|---|
| Airport | Trieste Airport (LIPQ) |
| Time | Latitude | Longitude | Altitude | Speed | Heading |
|---|---|---|---|---|---|
| 2026-04-29 14:40 | 45.45511 | 9.28064 | 393 ft | 0 kts | 90° |
| 2026-04-29 14:51 | 45.45511 | 9.28082 | 365 ft | 5 kts | 90° |
| 2026-04-29 14:51 | 45.45497 | 9.28138 | 366 ft | 8 kts | 137° |
| 2026-04-29 14:51 | 45.45439 | 9.28150 | 367 ft | 10 kts | 184° |
| 2026-04-29 14:51 | 45.45361 | 9.28144 | 370 ft | 12 kts | 184° |
| 2026-04-29 14:52 | 45.45280 | 9.28084 | 371 ft | 14 kts | 208° |
| 2026-04-29 14:52 | 45.45180 | 9.28048 | 365 ft | 16 kts | 175° |
| 2026-04-29 14:52 | 45.45064 | 9.28061 | 367 ft | 18 kts | 176° |
| 2026-04-29 14:52 | 45.44961 | 9.28042 | 370 ft | 13 kts | 218° |
| 2026-04-29 14:53 | 45.44911 | 9.27932 | 372 ft | 15 kts | 199° |
| 2026-04-29 14:53 | 45.44804 | 9.27943 | 369 ft | 17 kts | 173° |
| 2026-04-29 14:53 | 45.44680 | 9.27955 | 366 ft | 19 kts | 175° |
| 2026-04-29 14:53 | 45.44546 | 9.27971 | 370 ft | 20 kts | 175° |
| 2026-04-29 14:54 | 45.44402 | 9.27988 | 370 ft | 21 kts | 176° |
| 2026-04-29 14:54 | 45.44249 | 9.28003 | 368 ft | 23 kts | 176° |
| 2026-04-29 14:54 | 45.44085 | 9.28019 | 367 ft | 24 kts | 176° |
| 2026-04-29 14:54 | 45.43912 | 9.28039 | 366 ft | 26 kts | 175° |
| 2026-04-29 14:55 | 45.43752 | 9.28057 | 366 ft | 22 kts | 176° |
| 2026-04-29 14:55 | 45.43595 | 9.28071 | 366 ft | 24 kts | 175° |
| 2026-04-29 14:55 | 45.43473 | 9.28066 | 368 ft | 15 kts | 212° |
| 2026-04-29 14:55 | 45.43443 | 9.27924 | 367 ft | 17 kts | 263° |
| 2026-04-29 14:56 | 45.43521 | 9.27813 | 371 ft | 31 kts | 356° |
| 2026-04-29 14:56 | 45.44014 | 9.27762 | 364 ft | 109 kts | 355° |
| 2026-04-29 14:56 | 45.44977 | 9.27653 | 372 ft | 163 kts | 359° |
| 2026-04-29 14:56 | 45.46024 | 9.27543 | 1102 ft | 147 kts | 359° |
| 2026-04-29 14:57 | 45.47082 | 9.27280 | 1454 ft | 163 kts | 340° |
| 2026-04-29 14:57 | 45.48113 | 9.26467 | 1967 ft | 174 kts | 341° |
| 2026-04-29 14:57 | 45.49311 | 9.25940 | 2474 ft | 190 kts | 345° |
| 2026-04-29 14:57 | 45.50618 | 9.25323 | 2997 ft | 206 kts | 344° |
| 2026-04-29 14:58 | 45.52025 | 9.24632 | 3579 ft | 221 kts | 342° |
| 2026-04-29 14:58 | 45.53523 | 9.23900 | 4164 ft | 234 kts | 342° |
| 2026-04-29 14:58 | 45.55109 | 9.23124 | 4685 ft | 249 kts | 341° |
| 2026-04-29 14:58 | 45.56849 | 9.22642 | 5264 ft | 264 kts | 1° |
| 2026-04-29 14:59 | 45.58672 | 9.23181 | 6002 ft | 273 kts | 20° |
| 2026-04-29 14:59 | 45.60464 | 9.24130 | 6843 ft | 277 kts | 17° |
| 2026-04-29 14:59 | 45.62368 | 9.24457 | 7703 ft | 278 kts | 354° |
| 2026-04-29 14:59 | 45.62910 | 9.24382 | 7962 ft | 279 kts | 353° |
| 2026-04-29 15:00 | 45.63725 | 9.24233 | 8328 ft | 280 kts | 351° |
| 2026-04-29 15:00 | 45.65650 | 9.23845 | 9071 ft | 287 kts | 351° |
| 2026-04-29 15:00 | 45.67648 | 9.23444 | 9864 ft | 292 kts | 351° |
| 2026-04-29 15:01 | 45.69699 | 9.23057 | 10430 ft | 306 kts | 352° |
| 2026-04-29 15:01 | 45.71889 | 9.23094 | 10747 ft | 328 kts | 11° |
| 2026-04-29 15:01 | 45.74081 | 9.24397 | 11036 ft | 349 kts | 33° |
| 2026-04-29 15:01 | 45.75839 | 9.26872 | 11488 ft | 363 kts | 55° |
| 2026-04-29 15:02 | 45.76903 | 9.30109 | 12194 ft | 368 kts | 75° |
| 2026-04-29 15:02 | 45.77186 | 9.33757 | 12932 ft | 372 kts | 94° |
| 2026-04-29 15:02 | 45.76898 | 9.36235 | 13431 ft | 374 kts | 107° |
| 2026-04-29 15:02 | 45.76390 | 9.38299 | 13861 ft | 377 kts | 112° |
| 2026-04-29 15:03 | 45.75435 | 9.41818 | 14508 ft | 382 kts | 110° |
| 2026-04-29 15:03 | 45.74675 | 9.45475 | 15149 ft | 387 kts | 101° |
| 2026-04-29 15:03 | 45.74600 | 9.49334 | 15796 ft | 391 kts | 82° |
| 2026-04-29 15:03 | 45.75229 | 9.53131 | 16451 ft | 395 kts | 73° |
| 2026-04-29 15:04 | 45.75980 | 9.56939 | 17099 ft | 399 kts | 77° |
| 2026-04-29 15:04 | 45.76334 | 9.60955 | 17750 ft | 404 kts | 85° |
| 2026-04-29 15:04 | 45.76553 | 9.64933 | 18357 ft | 409 kts | 85° |
| 2026-04-29 15:04 | 45.76762 | 9.69015 | 18873 ft | 414 kts | 85° |
| 2026-04-29 15:05 | 45.76978 | 9.73143 | 19417 ft | 417 kts | 85° |
| 2026-04-29 15:05 | 45.77196 | 9.77296 | 19948 ft | 420 kts | 85° |
| 2026-04-29 15:05 | 45.77412 | 9.81480 | 20458 ft | 423 kts | 85° |
| 2026-04-29 15:05 | 45.77626 | 9.85703 | 20947 ft | 427 kts | 85° |
| 2026-04-29 15:06 | 45.77842 | 9.89966 | 21426 ft | 431 kts | 85° |
| 2026-04-29 15:06 | 45.78036 | 9.93779 | 21851 ft | 434 kts | 85° |
| 2026-04-29 15:07 | 45.78099 | 9.95007 | 22005 ft | 435 kts | 85° |
| 2026-04-29 15:07 | 45.78323 | 9.99337 | 22471 ft | 438 kts | 85° |
| 2026-04-29 15:08 | 45.78543 | 10.03713 | 22940 ft | 442 kts | 85° |
| 2026-04-29 15:08 | 45.78762 | 10.08126 | 23457 ft | 444 kts | 85° |
| 2026-04-29 15:08 | 45.78980 | 10.12534 | 24042 ft | 444 kts | 85° |
| 2026-04-29 15:08 | 45.79196 | 10.16937 | 24554 ft | 443 kts | 85° |
| 2026-04-29 15:09 | 45.79400 | 10.21335 | 25086 ft | 442 kts | 85° |
| 2026-04-29 15:09 | 45.79565 | 10.25012 | 25486 ft | 442 kts | 85° |
| 2026-04-29 15:09 | 45.79580 | 10.25355 | 25523 ft | 442 kts | 85° |
| 2026-04-29 15:09 | 45.79778 | 10.29672 | 25858 ft | 435 kts | 86° |
| 2026-04-29 15:10 | 45.79967 | 10.33987 | 26092 ft | 433 kts | 85° |
| 2026-04-29 15:10 | 45.80151 | 10.38283 | 26114 ft | 431 kts | 85° |
| 2026-04-29 15:10 | 45.80336 | 10.42558 | 26112 ft | 430 kts | 86° |
| 2026-04-29 15:10 | 45.80446 | 10.46848 | 26128 ft | 431 kts | 87° |
| 2026-04-29 15:11 | 45.80536 | 10.51136 | 26124 ft | 431 kts | 87° |
| 2026-04-29 15:11 | 45.80621 | 10.55435 | 26123 ft | 431 kts | 87° |
| 2026-04-29 15:11 | 45.80706 | 10.59719 | 26128 ft | 431 kts | 87° |
| 2026-04-29 15:11 | 45.80790 | 10.64010 | 26120 ft | 431 kts | 87° |
| 2026-04-29 15:12 | 45.80872 | 10.68308 | 26125 ft | 432 kts | 87° |
| 2026-04-29 15:12 | 45.80926 | 10.71158 | 26120 ft | 432 kts | 87° |
| 2026-04-29 15:12 | 45.81031 | 10.76853 | 26126 ft | 430 kts | 87° |
| 2026-04-29 15:12 | 45.81110 | 10.81180 | 26117 ft | 429 kts | 87° |
| 2026-04-29 15:13 | 45.81187 | 10.85392 | 26131 ft | 429 kts | 87° |
| 2026-04-29 15:13 | 45.81264 | 10.89672 | 26136 ft | 429 kts | 87° |
| 2026-04-29 15:13 | 45.81337 | 10.93933 | 26130 ft | 428 kts | 87° |
| 2026-04-29 15:13 | 45.81406 | 10.98202 | 26131 ft | 429 kts | 87° |
| 2026-04-29 15:14 | 45.81474 | 11.02478 | 26134 ft | 429 kts | 87° |
| 2026-04-29 15:14 | 45.81542 | 11.06751 | 26126 ft | 429 kts | 87° |
| 2026-04-29 15:14 | 45.81610 | 11.11033 | 26131 ft | 431 kts | 87° |
| 2026-04-29 15:14 | 45.81673 | 11.15322 | 26133 ft | 430 kts | 87° |
| 2026-04-29 15:15 | 45.81733 | 11.19613 | 26135 ft | 430 kts | 87° |
| 2026-04-29 15:15 | 45.81794 | 11.23889 | 26138 ft | 431 kts | 87° |
| 2026-04-29 15:15 | 45.81859 | 11.28205 | 26131 ft | 434 kts | 87° |
| 2026-04-29 15:15 | 45.81918 | 11.32525 | 25722 ft | 432 kts | 88° |
| 2026-04-29 15:16 | 45.81972 | 11.36810 | 25045 ft | 428 kts | 88° |
| 2026-04-29 15:16 | 45.82027 | 11.41061 | 24382 ft | 426 kts | 88° |
| 2026-04-29 15:16 | 45.82080 | 11.45293 | 23746 ft | 423 kts | 88° |
| 2026-04-29 15:16 | 45.82130 | 11.49504 | 23031 ft | 422 kts | 88° |
| 2026-04-29 15:17 | 45.82182 | 11.53699 | 22377 ft | 420 kts | 88° |
| 2026-04-29 15:17 | 45.82231 | 11.57876 | 21736 ft | 417 kts | 88° |
| 2026-04-29 15:17 | 45.82276 | 11.62009 | 21119 ft | 413 kts | 88° |
| 2026-04-29 15:17 | 45.82320 | 11.66109 | 20530 ft | 409 kts | 88° |
| 2026-04-29 15:18 | 45.82357 | 11.70162 | 19980 ft | 405 kts | 88° |
| 2026-04-29 15:18 | 45.82397 | 11.74175 | 19443 ft | 401 kts | 88° |
| 2026-04-29 15:18 | 45.82435 | 11.78160 | 18935 ft | 398 kts | 88° |
| 2026-04-29 15:18 | 45.82469 | 11.82114 | 18446 ft | 395 kts | 88° |
| 2026-04-29 15:19 | 45.82505 | 11.86036 | 17900 ft | 393 kts | 88° |
| 2026-04-29 15:19 | 45.82542 | 11.89942 | 17365 ft | 391 kts | 88° |
| 2026-04-29 15:19 | 45.82575 | 11.93828 | 16853 ft | 388 kts | 88° |
| 2026-04-29 15:19 | 45.82605 | 11.97689 | 16354 ft | 386 kts | 89° |
| 2026-04-29 15:20 | 45.82635 | 12.01526 | 15866 ft | 384 kts | 89° |
| 2026-04-29 15:20 | 45.82661 | 12.05339 | 15396 ft | 381 kts | 89° |
| 2026-04-29 15:20 | 45.82687 | 12.09132 | 14935 ft | 379 kts | 89° |
| 2026-04-29 15:20 | 45.82713 | 12.12902 | 14447 ft | 378 kts | 89° |
| 2026-04-29 15:21 | 45.82735 | 12.16662 | 13959 ft | 377 kts | 89° |
| 2026-04-29 15:21 | 45.82753 | 12.20407 | 13438 ft | 375 kts | 89° |
| 2026-04-29 15:21 | 45.82776 | 12.24082 | 12961 ft | 372 kts | 89° |
| 2026-04-29 15:21 | 45.82796 | 12.27771 | 12487 ft | 369 kts | 89° |
| 2026-04-29 15:22 | 45.82814 | 12.31437 | 11994 ft | 368 kts | 89° |
| 2026-04-29 15:22 | 45.82829 | 12.35097 | 11506 ft | 365 kts | 89° |
| 2026-04-29 15:22 | 45.82847 | 12.38770 | 11063 ft | 359 kts | 89° |
| 2026-04-29 15:22 | 45.82859 | 12.42218 | 10668 ft | 342 kts | 90° |
| 2026-04-29 15:23 | 45.82871 | 12.45547 | 10270 ft | 326 kts | 90° |
| 2026-04-29 15:23 | 45.82881 | 12.48715 | 10094 ft | 310 kts | 90° |
| 2026-04-29 15:23 | 45.82892 | 12.51751 | 9874 ft | 300 kts | 90° |
| 2026-04-29 15:23 | 45.82901 | 12.54730 | 9554 ft | 298 kts | 90° |
| 2026-04-29 15:24 | 45.82908 | 12.57698 | 9186 ft | 298 kts | 90° |
| 2026-04-29 15:24 | 45.82915 | 12.60656 | 8897 ft | 296 kts | 90° |
| 2026-04-29 15:24 | 45.82918 | 12.63575 | 8725 ft | 291 kts | 90° |
| 2026-04-29 15:24 | 45.82923 | 12.66491 | 8527 ft | 291 kts | 89° |
| 2026-04-29 15:25 | 45.82929 | 12.69384 | 8221 ft | 290 kts | 90° |
| 2026-04-29 15:25 | 45.82935 | 12.72270 | 7904 ft | 288 kts | 90° |
| 2026-04-29 15:25 | 45.82937 | 12.75135 | 7547 ft | 287 kts | 90° |
| 2026-04-29 15:25 | 45.82939 | 12.77987 | 7194 ft | 285 kts | 89° |
| 2026-04-29 15:26 | 45.82936 | 12.80808 | 6888 ft | 281 kts | 89° |
| 2026-04-29 15:26 | 45.82937 | 12.83602 | 6555 ft | 278 kts | 89° |
| 2026-04-29 15:26 | 45.82938 | 12.86371 | 6203 ft | 276 kts | 89° |
| 2026-04-29 15:26 | 45.82936 | 12.89091 | 5850 ft | 271 kts | 89° |
| 2026-04-29 15:27 | 45.82932 | 12.91778 | 5441 ft | 268 kts | 89° |
| 2026-04-29 15:27 | 45.82927 | 12.94434 | 5085 ft | 265 kts | 88° |
| 2026-04-29 15:27 | 45.82924 | 12.97065 | 4812 ft | 262 kts | 87° |
| 2026-04-29 15:27 | 45.82924 | 12.99666 | 4470 ft | 263 kts | 88° |
| 2026-04-29 15:28 | 45.82920 | 13.02285 | 4149 ft | 262 kts | 88° |
| 2026-04-29 15:28 | 45.82914 | 13.04006 | 3972 ft | 260 kts | 88° |
| 2026-04-29 15:28 | 45.82912 | 13.07467 | 3536 ft | 258 kts | 88° |
| 2026-04-29 15:28 | 45.82913 | 13.09154 | 3423 ft | 253 kts | 88° |
| 2026-04-29 15:29 | 45.82912 | 13.12404 | 3222 ft | 239 kts | 89° |
| 2026-04-29 15:29 | 45.82897 | 13.16943 | 2980 ft | 217 kts | 89° |
| 2026-04-29 15:30 | 45.82910 | 13.20914 | 2953 ft | 175 kts | 88° |
| 2026-04-29 15:30 | 45.82902 | 13.22650 | 3019 ft | 174 kts | 88° |
| 2026-04-29 15:30 | 45.82897 | 13.23826 | 2934 ft | 174 kts | 88° |
| 2026-04-29 15:30 | 45.82886 | 13.26106 | 2664 ft | 172 kts | 88° |
| 2026-04-29 15:31 | 45.82880 | 13.27260 | 2509 ft | 171 kts | 89° |
| 2026-04-29 15:31 | 45.82872 | 13.28956 | 2277 ft | 170 kts | 89° |
| 2026-04-29 15:31 | 45.82863 | 13.30631 | 2051 ft | 163 kts | 88° |
| 2026-04-29 15:31 | 45.82854 | 13.32121 | 1840 ft | 139 kts | 88° |
| 2026-04-29 15:32 | 45.82847 | 13.33417 | 1645 ft | 126 kts | 88° |
| 2026-04-29 15:32 | 45.82841 | 13.34668 | 1482 ft | 126 kts | 88° |
| 2026-04-29 15:32 | 45.82834 | 13.35908 | 1322 ft | 126 kts | 88° |
| 2026-04-29 15:32 | 45.82828 | 13.37164 | 1153 ft | 126 kts | 88° |
| 2026-04-29 15:33 | 45.82822 | 13.38437 | 1015 ft | 128 kts | 89° |
| 2026-04-29 15:33 | 45.82810 | 13.39718 | 855 ft | 129 kts | 89° |
| 2026-04-29 15:33 | 45.82801 | 13.41009 | 599 ft | 130 kts | 89° |
| 2026-04-29 15:33 | 45.82802 | 13.42303 | 508 ft | 129 kts | 88° |
| 2026-04-29 15:34 | 45.82798 | 13.43590 | 322 ft | 130 kts | 89° |
| 2026-04-29 15:34 | 45.82794 | 13.44898 | 121 ft | 130 kts | 89° |
| 2026-04-29 15:34 | 45.82786 | 13.46136 | 55 ft | 118 kts | 89° |
| 2026-04-29 15:34 | 45.82785 | 13.47106 | 54 ft | 72 kts | 89° |
| 2026-04-29 15:35 | 45.82787 | 13.47517 | 53 ft | 28 kts | 93° |
| 2026-04-29 15:35 | 45.82684 | 13.47743 | 53 ft | 29 kts | 143° |
| 2026-04-29 15:35 | 45.82561 | 13.47889 | 52 ft | 21 kts | 139° |
| 2026-04-29 15:35 | 45.82447 | 13.48028 | 53 ft | 22 kts | 140° |
| 2026-04-29 15:36 | 45.82326 | 13.48175 | 53 ft | 21 kts | 140° |
| 2026-04-29 15:36 | 45.82266 | 13.48251 | 53 ft | 12 kts | 129° |
| 2026-04-29 15:36 | 45.82265 | 13.48375 | 51 ft | 14 kts | 78° |
| 2026-04-29 15:36 | 45.82281 | 13.48492 | 53 ft | 7 kts | 80° |
| 2026-04-29 15:37 | 45.82238 | 13.48535 | 53 ft | 9 kts | 162° |
| 2026-04-29 15:37 | 45.82212 | 13.48542 | 53 ft | 2 kts | 172° |
| 2026-04-29 15:37 | 45.82208 | 13.48543 | 53 ft | 0 kts | 172° |